sensor_id;sensor_type;location;lat;lon;timestamp;temperature;humidity
9446;DHT22;4761;49.490;10.908;2024-01-06T00:01:01;16.90;47.50
9446;DHT22;4761;49.490;10.908;2024-01-06T00:03:26;16.90;47.50
9446;DHT22;4761;49.490;10.908;2024-01-06T00:05:52;16.90;47.60
9446;DHT22;4761;49.490;10.908;2024-01-06T00:08:17;16.90;47.50
9446;DHT22;4761;49.490;10.908;2024-01-06T00:10:43;16.90;47.20
9446;DHT22;4761;49.490;10.908;2024-01-06T00:13:10;16.90;47.30
9446;DHT22;4761;49.490;10.908;2024-01-06T00:15:36;17.00;47.30
9446;DHT22;4761;49.490;10.908;2024-01-06T00:18:01;16.90;47.20
9446;DHT22;4761;49.490;10.908;2024-01-06T00:20:27;16.90;47.20
9446;DHT22;4761;49.490;10.908;2024-01-06T00:22:53;16.90;47.20
9446;DHT22;4761;49.490;10.908;2024-01-06T00:25:18;16.90;47.10
9446;DHT22;4761;49.490;10.908;2024-01-06T00:27:44;16.90;47.20
9446;DHT22;4761;49.490;10.908;2024-01-06T00:30:10;16.90;47.20
9446;DHT22;4761;49.490;10.908;2024-01-06T00:32:35;16.90;47.20
9446;DHT22;4761;49.490;10.908;2024-01-06T00:35:01;16.90;47.10
9446;DHT22;4761;49.490;10.908;2024-01-06T00:37:26;16.90;47.20
9446;DHT22;4761;49.490;10.908;2024-01-06T00:39:52;16.90;47.20
9446;DHT22;4761;49.490;10.908;2024-01-06T00:42:17;16.90;47.20
9446;DHT22;4761;49.490;10.908;2024-01-06T00:44:43;16.90;47.20
9446;DHT22;4761;49.490;10.908;2024-01-06T00:47:10;16.90;47.20
9446;DHT22;4761;49.490;10.908;2024-01-06T00:49:36;16.90;47.20
9446;DHT22;4761;49.490;10.908;2024-01-06T00:52:01;16.90;47.10
9446;DHT22;4761;49.490;10.908;2024-01-06T00:54:27;16.90;47.10
9446;DHT22;4761;49.490;10.908;2024-01-06T00:56:52;16.90;47.20
9446;DHT22;4761;49.490;10.908;2024-01-06T00:59:18;16.90;47.10
9446;DHT22;4761;49.490;10.908;2024-01-06T01:01:43;16.90;47.00
9446;DHT22;4761;49.490;10.908;2024-01-06T01:04:09;16.90;47.10
9446;DHT22;4761;49.490;10.908;2024-01-06T01:06:36;16.90;47.10
9446;DHT22;4761;49.490;10.908;2024-01-06T01:09:02;16.90;47.20
9446;DHT22;4761;49.490;10.908;2024-01-06T01:11:28;16.90;47.10
9446;DHT22;4761;49.490;10.908;2024-01-06T01:13:53;16.90;47.00
9446;DHT22;4761;49.490;10.908;2024-01-06T01:16:19;16.90;47.10
9446;DHT22;4761;49.490;10.908;2024-01-06T01:18:44;16.90;46.80
9446;DHT22;4761;49.490;10.908;2024-01-06T01:21:10;16.90;47.00
9446;DHT22;4761;49.490;10.908;2024-01-06T01:23:35;16.90;46.80
9446;DHT22;4761;49.490;10.908;2024-01-06T01:26:01;16.90;46.70
9446;DHT22;4761;49.490;10.908;2024-01-06T01:28:27;17.00;46.70
9446;DHT22;4761;49.490;10.908;2024-01-06T01:30:52;16.90;46.50
9446;DHT22;4761;49.490;10.908;2024-01-06T01:33:18;17.00;46.50
9446;DHT22;4761;49.490;10.908;2024-01-06T01:35:43;16.90;46.40
9446;DHT22;4761;49.490;10.908;2024-01-06T01:38:09;16.90;46.40
9446;DHT22;4761;49.490;10.908;2024-01-06T01:40:34;16.90;46.40
9446;DHT22;4761;49.490;10.908;2024-01-06T01:43:00;16.90;46.20
9446;DHT22;4761;49.490;10.908;2024-01-06T01:45:25;17.00;46.50
9446;DHT22;4761;49.490;10.908;2024-01-06T01:47:51;16.90;46.20
9446;DHT22;4761;49.490;10.908;2024-01-06T01:50:17;16.90;46.30
9446;DHT22;4761;49.490;10.908;2024-01-06T01:52:42;16.90;46.20
9446;DHT22;4761;49.490;10.908;2024-01-06T01:55:08;16.90;46.30
9446;DHT22;4761;49.490;10.908;2024-01-06T01:57:34;16.90;46.10
9446;DHT22;4761;49.490;10.908;2024-01-06T02:00:00;16.90;46.30
9446;DHT22;4761;49.490;10.908;2024-01-06T02:02:26;16.90;46.20
9446;DHT22;4761;49.490;10.908;2024-01-06T02:04:54;16.90;46.10
9446;DHT22;4761;49.490;10.908;2024-01-06T02:07:20;16.90;46.00
9446;DHT22;4761;49.490;10.908;2024-01-06T02:09:45;16.90;46.10
9446;DHT22;4761;49.490;10.908;2024-01-06T02:12:11;16.90;46.00
9446;DHT22;4761;49.490;10.908;2024-01-06T02:14:36;16.90;46.00
9446;DHT22;4761;49.490;10.908;2024-01-06T02:17:02;16.90;45.90
9446;DHT22;4761;49.490;10.908;2024-01-06T02:19:28;16.90;46.00
9446;DHT22;4761;49.490;10.908;2024-01-06T02:21:53;16.90;46.00
9446;DHT22;4761;49.490;10.908;2024-01-06T02:24:20;16.90;45.90
9446;DHT22;4761;49.490;10.908;2024-01-06T02:26:45;16.90;45.90
9446;DHT22;4761;49.490;10.908;2024-01-06T02:29:11;16.90;45.90
9446;DHT22;4761;49.490;10.908;2024-01-06T02:31:36;16.90;45.90
9446;DHT22;4761;49.490;10.908;2024-01-06T02:34:02;16.90;45.80
9446;DHT22;4761;49.490;10.908;2024-01-06T02:36:27;16.90;45.80
9446;DHT22;4761;49.490;10.908;2024-01-06T02:38:53;16.90;45.80
9446;DHT22;4761;49.490;10.908;2024-01-06T02:41:18;16.90;45.70
9446;DHT22;4761;49.490;10.908;2024-01-06T02:43:44;16.90;45.70
9446;DHT22;4761;49.490;10.908;2024-01-06T02:46:09;16.90;45.70
9446;DHT22;4761;49.490;10.908;2024-01-06T02:48:35;16.90;45.80
9446;DHT22;4761;49.490;10.908;2024-01-06T02:51:00;16.90;45.70
9446;DHT22;4761;49.490;10.908;2024-01-06T02:53:26;16.90;45.80
9446;DHT22;4761;49.490;10.908;2024-01-06T02:55:51;16.90;45.70
9446;DHT22;4761;49.490;10.908;2024-01-06T02:58:17;16.90;45.80
9446;DHT22;4761;49.490;10.908;2024-01-06T03:00:42;16.90;45.90
9446;DHT22;4761;49.490;10.908;2024-01-06T03:03:08;16.90;46.40
9446;DHT22;4761;49.490;10.908;2024-01-06T03:05:33;16.90;45.90
9446;DHT22;4761;49.490;10.908;2024-01-06T03:07:59;16.90;46.00
9446;DHT22;4761;49.490;10.908;2024-01-06T03:10:25;16.90;46.00
9446;DHT22;4761;49.490;10.908;2024-01-06T03:12:51;16.90;46.00
9446;DHT22;4761;49.490;10.908;2024-01-06T03:15:16;16.90;46.10
9446;DHT22;4761;49.490;10.908;2024-01-06T03:17:42;16.90;46.00
9446;DHT22;4761;49.490;10.908;2024-01-06T03:20:08;16.90;46.00
9446;DHT22;4761;49.490;10.908;2024-01-06T03:22:34;16.90;45.90
9446;DHT22;4761;49.490;10.908;2024-01-06T03:25:00;16.90;45.90
9446;DHT22;4761;49.490;10.908;2024-01-06T03:27:25;16.90;45.80
9446;DHT22;4761;49.490;10.908;2024-01-06T03:29:51;16.90;45.90
9446;DHT22;4761;49.490;10.908;2024-01-06T03:32:16;16.90;45.80
9446;DHT22;4761;49.490;10.908;2024-01-06T03:34:42;16.90;45.90
9446;DHT22;4761;49.490;10.908;2024-01-06T03:37:08;16.90;46.00
9446;DHT22;4761;49.490;10.908;2024-01-06T03:39:33;16.90;45.90
9446;DHT22;4761;49.490;10.908;2024-01-06T03:42:00;16.90;45.90
9446;DHT22;4761;49.490;10.908;2024-01-06T03:44:26;16.90;45.90
9446;DHT22;4761;49.490;10.908;2024-01-06T03:46:58;16.90;46.00
9446;DHT22;4761;49.490;10.908;2024-01-06T03:49:24;16.90;45.90
9446;DHT22;4761;49.490;10.908;2024-01-06T03:51:50;16.90;46.00
9446;DHT22;4761;49.490;10.908;2024-01-06T03:54:16;16.80;45.80
9446;DHT22;4761;49.490;10.908;2024-01-06T03:56:41;16.90;45.90
9446;DHT22;4761;49.490;10.908;2024-01-06T03:59:07;16.90;45.80
9446;DHT22;4761;49.490;10.908;2024-01-06T04:01:33;16.90;45.70
9446;DHT22;4761;49.490;10.908;2024-01-06T04:04:02;16.90;45.90
9446;DHT22;4761;49.490;10.908;2024-01-06T04:06:27;16.90;45.90
9446;DHT22;4761;49.490;10.908;2024-01-06T04:08:53;16.90;46.00
9446;DHT22;4761;49.490;10.908;2024-01-06T04:11:20;16.90;46.00
9446;DHT22;4761;49.490;10.908;2024-01-06T04:13:46;16.90;46.00
9446;DHT22;4761;49.490;10.908;2024-01-06T04:16:12;16.90;46.00
9446;DHT22;4761;49.490;10.908;2024-01-06T04:18:37;16.90;46.00
9446;DHT22;4761;49.490;10.908;2024-01-06T04:21:03;16.90;46.00
9446;DHT22;4761;49.490;10.908;2024-01-06T04:23:30;16.90;46.00
9446;DHT22;4761;49.490;10.908;2024-01-06T04:25:56;16.90;46.10
9446;DHT22;4761;49.490;10.908;2024-01-06T04:28:21;16.90;46.00
9446;DHT22;4761;49.490;10.908;2024-01-06T04:30:47;16.90;46.00
9446;DHT22;4761;49.490;10.908;2024-01-06T04:33:12;16.90;45.90
9446;DHT22;4761;49.490;10.908;2024-01-06T04:35:38;16.90;46.00
9446;DHT22;4761;49.490;10.908;2024-01-06T04:38:03;16.90;45.90
9446;DHT22;4761;49.490;10.908;2024-01-06T04:40:30;16.90;45.90
9446;DHT22;4761;49.490;10.908;2024-01-06T04:42:55;16.90;45.90
9446;DHT22;4761;49.490;10.908;2024-01-06T04:45:21;16.90;45.80
9446;DHT22;4761;49.490;10.908;2024-01-06T04:47:49;16.90;45.80
9446;DHT22;4761;49.490;10.908;2024-01-06T04:50:14;16.90;45.80
9446;DHT22;4761;49.490;10.908;2024-01-06T04:52:40;16.90;45.80
9446;DHT22;4761;49.490;10.908;2024-01-06T04:55:05;16.90;45.80
9446;DHT22;4761;49.490;10.908;2024-01-06T04:57:31;16.90;45.80
9446;DHT22;4761;49.490;10.908;2024-01-06T04:59:56;16.90;45.90
9446;DHT22;4761;49.490;10.908;2024-01-06T05:02:22;16.90;45.70
9446;DHT22;4761;49.490;10.908;2024-01-06T05:04:47;16.90;45.80
9446;DHT22;4761;49.490;10.908;2024-01-06T05:07:13;16.90;45.70
9446;DHT22;4761;49.490;10.908;2024-01-06T05:09:38;16.90;45.90
9446;DHT22;4761;49.490;10.908;2024-01-06T05:12:04;16.90;45.80
9446;DHT22;4761;49.490;10.908;2024-01-06T05:14:30;16.90;45.80
9446;DHT22;4761;49.490;10.908;2024-01-06T05:16:55;16.90;45.80
9446;DHT22;4761;49.490;10.908;2024-01-06T05:19:21;16.90;45.80
9446;DHT22;4761;49.490;10.908;2024-01-06T05:21:47;16.90;45.80
9446;DHT22;4761;49.490;10.908;2024-01-06T05:24:13;16.90;45.80
9446;DHT22;4761;49.490;10.908;2024-01-06T05:26:38;16.90;45.70
9446;DHT22;4761;49.490;10.908;2024-01-06T05:29:04;16.90;45.80
9446;DHT22;4761;49.490;10.908;2024-01-06T05:31:30;16.90;45.60
9446;DHT22;4761;49.490;10.908;2024-01-06T05:33:55;16.90;45.60
9446;DHT22;4761;49.490;10.908;2024-01-06T05:36:21;16.90;45.50
9446;DHT22;4761;49.490;10.908;2024-01-06T05:38:46;16.90;45.60
9446;DHT22;4761;49.490;10.908;2024-01-06T05:41:12;16.90;45.50
9446;DHT22;4761;49.490;10.908;2024-01-06T05:43:37;16.90;45.50
9446;DHT22;4761;49.490;10.908;2024-01-06T05:46:04;16.90;45.50
9446;DHT22;4761;49.490;10.908;2024-01-06T05:48:29;16.90;45.40
9446;DHT22;4761;49.490;10.908;2024-01-06T05:50:55;16.90;45.50
9446;DHT22;4761;49.490;10.908;2024-01-06T05:53:20;16.90;45.60
9446;DHT22;4761;49.490;10.908;2024-01-06T05:55:47;16.90;45.50
9446;DHT22;4761;49.490;10.908;2024-01-06T05:58:12;16.90;45.40
9446;DHT22;4761;49.490;10.908;2024-01-06T06:00:38;16.90;45.20
9446;DHT22;4761;49.490;10.908;2024-01-06T06:03:04;16.90;45.10
9446;DHT22;4761;49.490;10.908;2024-01-06T06:05:29;16.90;44.90
9446;DHT22;4761;49.490;10.908;2024-01-06T06:07:55;17.00;45.10
9446;DHT22;4761;49.490;10.908;2024-01-06T06:10:21;16.90;45.10
9446;DHT22;4761;49.490;10.908;2024-01-06T06:12:47;16.90;45.60
9446;DHT22;4761;49.490;10.908;2024-01-06T06:15:12;16.90;45.10
9446;DHT22;4761;49.490;10.908;2024-01-06T06:17:39;16.90;45.00
9446;DHT22;4761;49.490;10.908;2024-01-06T06:20:05;16.90;45.00
9446;DHT22;4761;49.490;10.908;2024-01-06T06:22:32;16.90;45.00
9446;DHT22;4761;49.490;10.908;2024-01-06T06:24:58;16.90;45.10
9446;DHT22;4761;49.490;10.908;2024-01-06T06:27:24;16.90;44.90
9446;DHT22;4761;49.490;10.908;2024-01-06T06:29:49;16.90;44.90
9446;DHT22;4761;49.490;10.908;2024-01-06T06:32:15;16.90;44.90
9446;DHT22;4761;49.490;10.908;2024-01-06T06:34:41;16.90;45.00
9446;DHT22;4761;49.490;10.908;2024-01-06T06:37:07;16.90;45.00
9446;DHT22;4761;49.490;10.908;2024-01-06T06:39:33;16.90;44.80
9446;DHT22;4761;49.490;10.908;2024-01-06T06:41:59;17.00;44.90
9446;DHT22;4761;49.490;10.908;2024-01-06T06:44:25;16.90;44.90
9446;DHT22;4761;49.490;10.908;2024-01-06T06:46:50;16.90;44.80
9446;DHT22;4761;49.490;10.908;2024-01-06T06:49:16;16.90;44.90
9446;DHT22;4761;49.490;10.908;2024-01-06T06:51:41;16.90;44.80
9446;DHT22;4761;49.490;10.908;2024-01-06T06:54:12;16.90;44.80
9446;DHT22;4761;49.490;10.908;2024-01-06T06:56:38;16.90;44.70
9446;DHT22;4761;49.490;10.908;2024-01-06T06:59:03;16.90;44.60
9446;DHT22;4761;49.490;10.908;2024-01-06T07:01:29;16.90;45.10
9446;DHT22;4761;49.490;10.908;2024-01-06T07:03:54;16.90;44.30
9446;DHT22;4761;49.490;10.908;2024-01-06T07:06:20;16.90;44.40
9446;DHT22;4761;49.490;10.908;2024-01-06T07:08:46;16.90;44.50
9446;DHT22;4761;49.490;10.908;2024-01-06T07:11:11;16.90;44.60
9446;DHT22;4761;49.490;10.908;2024-01-06T07:13:37;16.90;44.30
9446;DHT22;4761;49.490;10.908;2024-01-06T07:16:03;16.90;44.20
9446;DHT22;4761;49.490;10.908;2024-01-06T07:18:28;16.90;44.20
9446;DHT22;4761;49.490;10.908;2024-01-06T07:20:54;16.90;44.10
9446;DHT22;4761;49.490;10.908;2024-01-06T07:23:19;16.90;44.00
9446;DHT22;4761;49.490;10.908;2024-01-06T07:25:45;16.90;44.20
9446;DHT22;4761;49.490;10.908;2024-01-06T07:28:11;16.90;44.10
9446;DHT22;4761;49.490;10.908;2024-01-06T07:30:36;16.90;44.10
9446;DHT22;4761;49.490;10.908;2024-01-06T07:33:02;16.90;44.20
9446;DHT22;4761;49.490;10.908;2024-01-06T07:35:27;16.90;44.30
9446;DHT22;4761;49.490;10.908;2024-01-06T07:37:54;16.90;44.30
9446;DHT22;4761;49.490;10.908;2024-01-06T07:40:19;16.90;44.20
9446;DHT22;4761;49.490;10.908;2024-01-06T07:42:45;16.90;44.10
9446;DHT22;4761;49.490;10.908;2024-01-06T07:45:11;16.90;44.20
9446;DHT22;4761;49.490;10.908;2024-01-06T07:47:37;16.90;44.00
9446;DHT22;4761;49.490;10.908;2024-01-06T07:50:04;16.90;44.00
9446;DHT22;4761;49.490;10.908;2024-01-06T07:52:30;16.90;44.10
9446;DHT22;4761;49.490;10.908;2024-01-06T07:54:56;16.90;44.00
9446;DHT22;4761;49.490;10.908;2024-01-06T07:57:21;16.90;44.10
9446;DHT22;4761;49.490;10.908;2024-01-06T07:59:47;16.90;43.90
9446;DHT22;4761;49.490;10.908;2024-01-06T08:02:12;16.80;44.00
9446;DHT22;4761;49.490;10.908;2024-01-06T08:04:38;16.90;44.20
9446;DHT22;4761;49.490;10.908;2024-01-06T08:07:03;16.90;44.10
9446;DHT22;4761;49.490;10.908;2024-01-06T08:09:29;16.90;44.10
9446;DHT22;4761;49.490;10.908;2024-01-06T08:11:54;16.90;44.00
9446;DHT22;4761;49.490;10.908;2024-01-06T08:14:20;16.90;44.10
9446;DHT22;4761;49.490;10.908;2024-01-06T08:16:45;16.90;44.10
9446;DHT22;4761;49.490;10.908;2024-01-06T08:19:11;16.90;44.20
9446;DHT22;4761;49.490;10.908;2024-01-06T08:21:37;16.90;44.10
9446;DHT22;4761;49.490;10.908;2024-01-06T08:24:02;16.90;44.30
9446;DHT22;4761;49.490;10.908;2024-01-06T08:26:28;16.90;44.20
9446;DHT22;4761;49.490;10.908;2024-01-06T08:28:54;16.90;44.20
9446;DHT22;4761;49.490;10.908;2024-01-06T08:31:19;16.90;44.20
9446;DHT22;4761;49.490;10.908;2024-01-06T08:33:45;16.80;44.20
9446;DHT22;4761;49.490;10.908;2024-01-06T08:36:11;16.90;44.30
9446;DHT22;4761;49.490;10.908;2024-01-06T08:38:36;16.90;44.20
9446;DHT22;4761;49.490;10.908;2024-01-06T08:41:02;16.90;44.20
9446;DHT22;4761;49.490;10.908;2024-01-06T08:43:28;16.90;44.40
9446;DHT22;4761;49.490;10.908;2024-01-06T08:45:53;16.90;44.40
9446;DHT22;4761;49.490;10.908;2024-01-06T08:48:19;16.90;44.50
9446;DHT22;4761;49.490;10.908;2024-01-06T08:50:44;16.90;44.50
9446;DHT22;4761;49.490;10.908;2024-01-06T08:53:11;16.90;44.40
9446;DHT22;4761;49.490;10.908;2024-01-06T08:55:37;16.90;44.50
9446;DHT22;4761;49.490;10.908;2024-01-06T08:58:03;16.90;44.50
9446;DHT22;4761;49.490;10.908;2024-01-06T09:00:28;16.90;44.40
9446;DHT22;4761;49.490;10.908;2024-01-06T09:02:54;16.90;44.50
9446;DHT22;4761;49.490;10.908;2024-01-06T09:05:20;16.90;44.60
9446;DHT22;4761;49.490;10.908;2024-01-06T09:07:45;16.90;44.60
9446;DHT22;4761;49.490;10.908;2024-01-06T09:10:18;16.90;44.60
9446;DHT22;4761;49.490;10.908;2024-01-06T09:12:44;16.90;44.70
9446;DHT22;4761;49.490;10.908;2024-01-06T09:15:10;16.90;44.80
9446;DHT22;4761;49.490;10.908;2024-01-06T09:17:35;16.80;44.70
9446;DHT22;4761;49.490;10.908;2024-01-06T09:20:01;16.80;44.70
9446;DHT22;4761;49.490;10.908;2024-01-06T09:22:28;16.80;44.80
9446;DHT22;4761;49.490;10.908;2024-01-06T09:24:53;16.80;45.20
9446;DHT22;4761;49.490;10.908;2024-01-06T09:27:19;16.80;45.80
9446;DHT22;4761;49.490;10.908;2024-01-06T09:29:45;16.90;45.90
9446;DHT22;4761;49.490;10.908;2024-01-06T09:32:10;16.90;45.80
9446;DHT22;4761;49.490;10.908;2024-01-06T09:34:36;16.90;45.80
9446;DHT22;4761;49.490;10.908;2024-01-06T09:37:02;16.90;45.70
9446;DHT22;4761;49.490;10.908;2024-01-06T09:39:28;16.80;45.70
9446;DHT22;4761;49.490;10.908;2024-01-06T09:41:56;16.90;45.70
9446;DHT22;4761;49.490;10.908;2024-01-06T09:44:21;16.80;45.60
9446;DHT22;4761;49.490;10.908;2024-01-06T09:46:47;16.90;45.80
9446;DHT22;4761;49.490;10.908;2024-01-06T09:49:14;16.80;45.70
9446;DHT22;4761;49.490;10.908;2024-01-06T09:51:40;16.90;45.80
9446;DHT22;4761;49.490;10.908;2024-01-06T09:54:09;16.80;45.70
9446;DHT22;4761;49.490;10.908;2024-01-06T09:56:35;16.80;45.80
9446;DHT22;4761;49.490;10.908;2024-01-06T09:59:01;16.80;45.70
9446;DHT22;4761;49.490;10.908;2024-01-06T10:01:27;16.90;45.80
9446;DHT22;4761;49.490;10.908;2024-01-06T10:03:53;16.80;45.80
9446;DHT22;4761;49.490;10.908;2024-01-06T10:06:18;16.90;45.90
9446;DHT22;4761;49.490;10.908;2024-01-06T10:08:49;16.80;45.80
9446;DHT22;4761;49.490;10.908;2024-01-06T10:11:15;16.80;45.80
9446;DHT22;4761;49.490;10.908;2024-01-06T10:13:41;16.90;45.90
9446;DHT22;4761;49.490;10.908;2024-01-06T10:16:07;16.90;45.90
9446;DHT22;4761;49.490;10.908;2024-01-06T10:18:33;16.80;45.80
9446;DHT22;4761;49.490;10.908;2024-01-06T10:21:03;16.80;45.80
9446;DHT22;4761;49.490;10.908;2024-01-06T10:23:32;16.80;45.80
9446;DHT22;4761;49.490;10.908;2024-01-06T10:25:57;16.90;46.00
9446;DHT22;4761;49.490;10.908;2024-01-06T10:28:23;16.90;46.00
9446;DHT22;4761;49.490;10.908;2024-01-06T10:30:52;16.90;46.00
9446;DHT22;4761;49.490;10.908;2024-01-06T10:33:19;16.90;46.00
9446;DHT22;4761;49.490;10.908;2024-01-06T10:35:46;16.90;45.90
9446;DHT22;4761;49.490;10.908;2024-01-06T10:38:12;16.90;46.00
9446;DHT22;4761;49.490;10.908;2024-01-06T10:40:37;16.90;46.00
9446;DHT22;4761;49.490;10.908;2024-01-06T10:43:03;16.90;45.90
9446;DHT22;4761;49.490;10.908;2024-01-06T10:45:30;16.90;45.90
9446;DHT22;4761;49.490;10.908;2024-01-06T10:47:55;16.90;46.00
9446;DHT22;4761;49.490;10.908;2024-01-06T10:50:22;16.90;46.60
9446;DHT22;4761;49.490;10.908;2024-01-06T10:52:48;16.90;45.90
9446;DHT22;4761;49.490;10.908;2024-01-06T10:55:17;16.90;45.90
9446;DHT22;4761;49.490;10.908;2024-01-06T10:57:46;16.90;46.00
9446;DHT22;4761;49.490;10.908;2024-01-06T11:00:12;16.90;45.90
9446;DHT22;4761;49.490;10.908;2024-01-06T11:02:39;16.90;45.90
9446;DHT22;4761;49.490;10.908;2024-01-06T11:05:05;16.90;45.90
9446;DHT22;4761;49.490;10.908;2024-01-06T11:07:33;16.90;45.90
9446;DHT22;4761;49.490;10.908;2024-01-06T11:10:08;16.90;45.90
9446;DHT22;4761;49.490;10.908;2024-01-06T11:12:35;16.90;45.90
9446;DHT22;4761;49.490;10.908;2024-01-06T11:15:00;16.90;45.90
9446;DHT22;4761;49.490;10.908;2024-01-06T11:17:51;16.90;45.90
9446;DHT22;4761;49.490;10.908;2024-01-06T11:20:19;16.90;45.90
9446;DHT22;4761;49.490;10.908;2024-01-06T11:22:46;16.80;45.90
9446;DHT22;4761;49.490;10.908;2024-01-06T11:25:15;16.90;45.90
9446;DHT22;4761;49.490;10.908;2024-01-06T11:27:42;16.90;45.90
9446;DHT22;4761;49.490;10.908;2024-01-06T11:30:08;16.90;45.90
9446;DHT22;4761;49.490;10.908;2024-01-06T11:32:44;16.90;45.90
9446;DHT22;4761;49.490;10.908;2024-01-06T11:35:13;16.90;45.90
9446;DHT22;4761;49.490;10.908;2024-01-06T11:40:10;16.90;46.00
9446;DHT22;4761;49.490;10.908;2024-01-06T11:42:41;16.90;46.00
9446;DHT22;4761;49.490;10.908;2024-01-06T11:45:07;16.90;46.00
9446;DHT22;4761;49.490;10.908;2024-01-06T11:47:34;16.90;46.00
9446;DHT22;4761;49.490;10.908;2024-01-06T11:50:01;16.90;46.10
9446;DHT22;4761;49.490;10.908;2024-01-06T11:52:33;16.90;46.00
9446;DHT22;4761;49.490;10.908;2024-01-06T11:55:00;16.90;46.00
9446;DHT22;4761;49.490;10.908;2024-01-06T11:57:27;16.90;46.00
9446;DHT22;4761;49.490;10.908;2024-01-06T11:59:53;16.90;46.00
9446;DHT22;4761;49.490;10.908;2024-01-06T12:02:19;16.90;46.00
9446;DHT22;4761;49.490;10.908;2024-01-06T12:04:52;16.90;46.00
9446;DHT22;4761;49.490;10.908;2024-01-06T12:07:19;16.90;45.90
9446;DHT22;4761;49.490;10.908;2024-01-06T12:09:46;16.90;45.90
9446;DHT22;4761;49.490;10.908;2024-01-06T12:12:15;16.90;45.90
9446;DHT22;4761;49.490;10.908;2024-01-06T12:14:41;16.90;45.80
9446;DHT22;4761;49.490;10.908;2024-01-06T12:17:11;16.90;45.80
9446;DHT22;4761;49.490;10.908;2024-01-06T12:19:39;16.90;45.80
9446;DHT22;4761;49.490;10.908;2024-01-06T12:22:07;16.90;45.80
9446;DHT22;4761;49.490;10.908;2024-01-06T12:24:32;16.90;45.90
9446;DHT22;4761;49.490;10.908;2024-01-06T12:26:58;16.90;45.90
9446;DHT22;4761;49.490;10.908;2024-01-06T12:29:28;16.90;45.90
9446;DHT22;4761;49.490;10.908;2024-01-06T12:31:59;16.90;45.80
9446;DHT22;4761;49.490;10.908;2024-01-06T12:34:25;16.90;45.80
9446;DHT22;4761;49.490;10.908;2024-01-06T12:36:53;16.90;45.80
9446;DHT22;4761;49.490;10.908;2024-01-06T12:39:20;16.90;45.80
9446;DHT22;4761;49.490;10.908;2024-01-06T12:41:45;16.80;45.80
9446;DHT22;4761;49.490;10.908;2024-01-06T12:44:11;16.90;46.70
9446;DHT22;4761;49.490;10.908;2024-01-06T12:46:38;16.90;47.20
9446;DHT22;4761;49.490;10.908;2024-01-06T12:49:04;16.90;47.20
9446;DHT22;4761;49.490;10.908;2024-01-06T12:51:29;16.90;47.30
9446;DHT22;4761;49.490;10.908;2024-01-06T12:53:55;16.90;47.30
9446;DHT22;4761;49.490;10.908;2024-01-06T12:56:21;16.90;47.40
9446;DHT22;4761;49.490;10.908;2024-01-06T12:58:46;16.90;47.40
9446;DHT22;4761;49.490;10.908;2024-01-06T13:01:12;16.90;47.40
9446;DHT22;4761;49.490;10.908;2024-01-06T13:03:37;16.90;47.50
9446;DHT22;4761;49.490;10.908;2024-01-06T13:06:03;16.90;47.60
9446;DHT22;4761;49.490;10.908;2024-01-06T13:08:29;16.90;48.00
9446;DHT22;4761;49.490;10.908;2024-01-06T13:10:55;16.80;47.60
9446;DHT22;4761;49.490;10.908;2024-01-06T13:13:21;16.90;47.80
9446;DHT22;4761;49.490;10.908;2024-01-06T13:15:47;16.90;47.90
9446;DHT22;4761;49.490;10.908;2024-01-06T13:18:12;16.90;48.00
9446;DHT22;4761;49.490;10.908;2024-01-06T13:20:39;16.90;48.10
9446;DHT22;4761;49.490;10.908;2024-01-06T13:23:07;16.90;48.20
9446;DHT22;4761;49.490;10.908;2024-01-06T13:25:33;16.90;48.30
9446;DHT22;4761;49.490;10.908;2024-01-06T13:27:58;17.00;48.50
9446;DHT22;4761;49.490;10.908;2024-01-06T13:30:25;16.90;48.50
9446;DHT22;4761;49.490;10.908;2024-01-06T13:32:53;17.00;48.70
9446;DHT22;4761;49.490;10.908;2024-01-06T13:35:22;17.00;48.80
9446;DHT22;4761;49.490;10.908;2024-01-06T13:37:50;17.00;48.90
9446;DHT22;4761;49.490;10.908;2024-01-06T13:40:17;17.00;49.00
9446;DHT22;4761;49.490;10.908;2024-01-06T13:42:46;17.00;49.10
9446;DHT22;4761;49.490;10.908;2024-01-06T13:45:12;17.00;49.10
9446;DHT22;4761;49.490;10.908;2024-01-06T13:47:38;17.00;49.20
9446;DHT22;4761;49.490;10.908;2024-01-06T13:50:07;17.00;49.20
9446;DHT22;4761;49.490;10.908;2024-01-06T13:52:33;17.00;49.40
9446;DHT22;4761;49.490;10.908;2024-01-06T13:55:00;17.00;49.40
9446;DHT22;4761;49.490;10.908;2024-01-06T13:57:25;17.00;49.50
9446;DHT22;4761;49.490;10.908;2024-01-06T13:59:51;17.10;49.50
9446;DHT22;4761;49.490;10.908;2024-01-06T14:02:16;17.00;50.20
9446;DHT22;4761;49.490;10.908;2024-01-06T14:04:42;17.10;50.50
9446;DHT22;4761;49.490;10.908;2024-01-06T14:07:08;17.10;50.40
9446;DHT22;4761;49.490;10.908;2024-01-06T14:09:35;17.10;50.40
9446;DHT22;4761;49.490;10.908;2024-01-06T14:12:01;17.10;50.30
9446;DHT22;4761;49.490;10.908;2024-01-06T14:14:26;17.00;50.10
9446;DHT22;4761;49.490;10.908;2024-01-06T14:16:52;17.00;50.10
9446;DHT22;4761;49.490;10.908;2024-01-06T14:19:18;17.00;50.00
9446;DHT22;4761;49.490;10.908;2024-01-06T14:21:43;17.00;49.90
9446;DHT22;4761;49.490;10.908;2024-01-06T14:24:09;17.00;49.80
9446;DHT22;4761;49.490;10.908;2024-01-06T14:26:34;17.00;49.80
9446;DHT22;4761;49.490;10.908;2024-01-06T14:29:00;17.00;49.80
9446;DHT22;4761;49.490;10.908;2024-01-06T14:31:25;17.00;49.70
9446;DHT22;4761;49.490;10.908;2024-01-06T14:33:52;17.00;49.60
9446;DHT22;4761;49.490;10.908;2024-01-06T14:36:18;17.00;49.50
9446;DHT22;4761;49.490;10.908;2024-01-06T14:38:44;17.00;49.30
9446;DHT22;4761;49.490;10.908;2024-01-06T14:41:09;17.00;49.20
9446;DHT22;4761;49.490;10.908;2024-01-06T14:43:35;17.00;49.20
9446;DHT22;4761;49.490;10.908;2024-01-06T14:46:00;17.10;48.80
9446;DHT22;4761;49.490;10.908;2024-01-06T14:48:26;17.10;48.80
9446;DHT22;4761;49.490;10.908;2024-01-06T14:50:51;17.10;48.70
9446;DHT22;4761;49.490;10.908;2024-01-06T14:53:17;17.10;48.70
9446;DHT22;4761;49.490;10.908;2024-01-06T14:55:42;17.10;48.70
9446;DHT22;4761;49.490;10.908;2024-01-06T14:58:08;17.10;48.70
9446;DHT22;4761;49.490;10.908;2024-01-06T15:00:35;17.10;48.70
9446;DHT22;4761;49.490;10.908;2024-01-06T15:03:01;17.10;48.60
9446;DHT22;4761;49.490;10.908;2024-01-06T15:05:26;17.00;48.50
9446;DHT22;4761;49.490;10.908;2024-01-06T15:07:55;17.00;48.50
9446;DHT22;4761;49.490;10.908;2024-01-06T15:10:20;17.00;48.40
9446;DHT22;4761;49.490;10.908;2024-01-06T15:12:46;17.00;48.40
9446;DHT22;4761;49.490;10.908;2024-01-06T15:15:12;17.00;48.40
9446;DHT22;4761;49.490;10.908;2024-01-06T15:17:38;17.00;48.30
9446;DHT22;4761;49.490;10.908;2024-01-06T15:20:04;17.00;48.30
9446;DHT22;4761;49.490;10.908;2024-01-06T15:22:30;17.00;48.20
9446;DHT22;4761;49.490;10.908;2024-01-06T15:24:56;17.00;48.20
9446;DHT22;4761;49.490;10.908;2024-01-06T15:27:21;17.00;48.20
9446;DHT22;4761;49.490;10.908;2024-01-06T15:29:47;17.00;48.10
9446;DHT22;4761;49.490;10.908;2024-01-06T15:32:12;17.00;48.00
9446;DHT22;4761;49.490;10.908;2024-01-06T15:34:38;17.00;48.00
9446;DHT22;4761;49.490;10.908;2024-01-06T15:37:03;17.00;48.00
9446;DHT22;4761;49.490;10.908;2024-01-06T15:39:29;17.00;48.00